sensor_id;sensor_type;location;lat;lon;timestamp;pressure;altitude;pressure_sealevel;temperature;humidity
70015;BME280;57358;51.094;6.760;2023-10-08T00:01:50;101369.78;;;17.28;85.71
70015;BME280;57358;51.094;6.760;2023-10-08T00:04:17;101420.72;;;17.59;85.90
70015;BME280;57358;51.094;6.760;2023-10-08T00:06:45;101340.63;;;17.02;86.02
70015;BME280;57358;51.094;6.760;2023-10-08T00:09:12;101410.75;;;17.37;86.38
70015;BME280;57358;51.094;6.760;2023-10-08T00:11:40;101446.50;;;17.44;87.10
70015;BME280;57358;51.094;6.760;2023-10-08T00:14:07;101435.47;;;17.37;87.08
70015;BME280;57358;51.094;6.760;2023-10-08T00:16:37;101396.41;;;17.01;87.88
70015;BME280;57358;51.094;6.760;2023-10-08T00:19:06;101388.03;;;16.94;87.70
70015;BME280;57358;51.094;6.760;2023-10-08T00:21:40;101383.31;;;16.72;88.36
70015;BME280;57358;51.094;6.760;2023-10-08T00:24:06;101429.41;;;17.09;87.82
70015;BME280;57358;51.094;6.760;2023-10-08T00:26:33;101355.41;;;16.66;87.27
70015;BME280;57358;51.094;6.760;2023-10-08T00:29:03;101474.28;;;17.25;88.16
70015;BME280;57358;51.094;6.760;2023-10-08T00:31:33;101479.69;;;17.24;88.02
70015;BME280;57358;51.094;6.760;2023-10-08T00:34:07;101424.59;;;16.89;88.03
70015;BME280;57358;51.094;6.760;2023-10-08T00:36:43;101432.78;;;16.86;88.06
70015;BME280;57358;51.094;6.760;2023-10-08T00:39:10;101467.59;;;17.20;87.87
70015;BME280;57358;51.094;6.760;2023-10-08T00:41:44;101427.81;;;16.80;88.56
70015;BME280;57358;51.094;6.760;2023-10-08T00:44:12;101487.13;;;17.19;89.01
70015;BME280;57358;51.094;6.760;2023-10-08T00:46:49;101482.25;;;17.12;89.24
70015;BME280;57358;51.094;6.760;2023-10-08T00:49:18;101443.91;;;16.91;89.07
70015;BME280;57358;51.094;6.760;2023-10-08T00:51:50;101450.84;;;17.06;88.55
70015;BME280;57358;51.094;6.760;2023-10-08T00:54:27;101432.66;;;16.87;88.88
70015;BME280;57358;51.094;6.760;2023-10-08T00:56:54;101421.25;;;16.72;88.27
70015;BME280;57358;51.094;6.760;2023-10-08T00:59:24;101484.97;;;16.98;89.22
70015;BME280;57358;51.094;6.760;2023-10-08T01:01:59;101470.31;;;16.92;88.70
70015;BME280;57358;51.094;6.760;2023-10-08T01:04:32;101391.72;;;16.24;89.72
70015;BME280;57358;51.094;6.760;2023-10-08T01:07:03;101479.16;;;16.79;90.29
70015;BME280;57358;51.094;6.760;2023-10-08T01:09:39;101343.59;;;15.90;89.77
70015;BME280;57358;51.094;6.760;2023-10-08T01:14:44;101445.97;;;16.46;90.35
70015;BME280;57358;51.094;6.760;2023-10-08T01:17:13;101449.66;;;16.43;90.64
70015;BME280;57358;51.094;6.760;2023-10-08T01:19:43;101482.09;;;16.47;92.17
70015;BME280;57358;51.094;6.760;2023-10-08T01:22:12;101385.38;;;15.85;92.02
70015;BME280;57358;51.094;6.760;2023-10-08T01:24:45;101493.50;;;16.34;92.45
70015;BME280;57358;51.094;6.760;2023-10-08T01:27:15;101476.94;;;16.31;92.04
70015;BME280;57358;51.094;6.760;2023-10-08T01:29:49;101451.06;;;16.22;92.28
70015;BME280;57358;51.094;6.760;2023-10-08T01:32:19;101474.88;;;16.22;92.81
70015;BME280;57358;51.094;6.760;2023-10-08T01:34:47;101473.28;;;16.05;93.15
70015;BME280;57358;51.094;6.760;2023-10-08T01:37:15;101519.34;;;16.17;93.50
70015;BME280;57358;51.094;6.760;2023-10-08T01:39:45;101515.28;;;16.11;93.75
70015;BME280;57358;51.094;6.760;2023-10-08T01:42:14;101521.16;;;16.02;94.83
70015;BME280;57358;51.094;6.760;2023-10-08T01:44:45;101524.16;;;15.95;94.80
70015;BME280;57358;51.094;6.760;2023-10-08T01:47:20;101434.44;;;15.33;95.00
70015;BME280;57358;51.094;6.760;2023-10-08T01:49:46;101493.13;;;15.69;95.17
70015;BME280;57358;51.094;6.760;2023-10-08T01:52:13;101498.88;;;15.61;95.59
70015;BME280;57358;51.094;6.760;2023-10-08T01:54:49;101549.41;;;15.87;96.20
70015;BME280;57358;51.094;6.760;2023-10-08T01:57:16;101459.06;;;15.34;96.51
70015;BME280;57358;51.094;6.760;2023-10-08T01:59:43;101483.66;;;15.50;96.42
70015;BME280;57358;51.094;6.760;2023-10-08T02:02:10;101510.41;;;15.60;97.13
70015;BME280;57358;51.094;6.760;2023-10-08T02:04:39;101458.13;;;15.35;96.88
70015;BME280;57358;51.094;6.760;2023-10-08T02:07:06;101499.63;;;15.63;97.00
70015;BME280;57358;51.094;6.760;2023-10-08T02:09:40;101475.06;;;15.47;97.01
70015;BME280;57358;51.094;6.760;2023-10-08T02:12:06;101537.19;;;15.70;97.80
70015;BME280;57358;51.094;6.760;2023-10-08T02:14:34;101523.19;;;15.68;97.01
70015;BME280;57358;51.094;6.760;2023-10-08T02:17:02;101533.94;;;15.65;97.42
70015;BME280;57358;51.094;6.760;2023-10-08T02:19:33;101506.50;;;15.51;96.93
70015;BME280;57358;51.094;6.760;2023-10-08T02:22:00;101488.72;;;15.39;96.83
70015;BME280;57358;51.094;6.760;2023-10-08T02:24:28;101552.19;;;15.69;97.93
70015;BME280;57358;51.094;6.760;2023-10-08T02:26:56;101547.00;;;15.68;97.63
70015;BME280;57358;51.094;6.760;2023-10-08T02:29:29;101535.28;;;15.72;97.88
70015;BME280;57358;51.094;6.760;2023-10-08T02:31:56;101470.22;;;15.39;97.34
70015;BME280;57358;51.094;6.760;2023-10-08T02:34:23;101447.16;;;15.27;97.35
70015;BME280;57358;51.094;6.760;2023-10-08T02:36:49;101258.91;;;14.18;95.99
70015;BME280;57358;51.094;6.760;2023-10-08T02:39:18;101531.16;;;15.82;95.89
70015;BME280;57358;51.094;6.760;2023-10-08T02:41:49;101517.84;;;15.84;95.78
70015;BME280;57358;51.094;6.760;2023-10-08T02:44:16;101508.00;;;15.86;95.75
70015;BME280;57358;51.094;6.760;2023-10-08T02:46:44;101443.13;;;15.50;95.81
70015;BME280;57358;51.094;6.760;2023-10-08T02:49:14;101413.16;;;15.35;94.09
70015;BME280;57358;51.094;6.760;2023-10-08T02:51:47;101442.41;;;15.77;93.23
70015;BME280;57358;51.094;6.760;2023-10-08T02:54:17;101437.31;;;15.88;92.23
70015;BME280;57358;51.094;6.760;2023-10-08T02:56:51;101193.16;;;14.44;91.14
70015;BME280;57358;51.094;6.760;2023-10-08T02:59:18;101382.75;;;15.56;90.39
70015;BME280;57358;51.094;6.760;2023-10-08T03:01:48;101368.38;;;15.61;90.06
70015;BME280;57358;51.094;6.760;2023-10-08T03:04:16;101396.28;;;15.52;90.49
70015;BME280;57358;51.094;6.760;2023-10-08T03:06:46;101435.03;;;15.82;90.50
70015;BME280;57358;51.094;6.760;2023-10-08T03:09:20;101403.91;;;15.71;90.05
70015;BME280;57358;51.094;6.760;2023-10-08T03:11:52;101384.81;;;15.51;89.31
70015;BME280;57358;51.094;6.760;2023-10-08T03:14:19;101410.41;;;15.65;89.64
70015;BME280;57358;51.094;6.760;2023-10-08T03:16:52;101424.78;;;15.61;89.82
70015;BME280;57358;51.094;6.760;2023-10-08T03:19:21;101371.69;;;15.21;90.14
70015;BME280;57358;51.094;6.760;2023-10-08T03:21:49;101444.56;;;15.55;91.03
70015;BME280;57358;51.094;6.760;2023-10-08T03:24:22;101375.00;;;15.10;90.57
70015;BME280;57358;51.094;6.760;2023-10-08T03:27:01;101383.09;;;15.07;90.56
70015;BME280;57358;51.094;6.760;2023-10-08T03:29:38;101452.66;;;15.52;91.31
70015;BME280;57358;51.094;6.760;2023-10-08T03:32:09;101247.97;;;14.24;91.30
70015;BME280;57358;51.094;6.760;2023-10-08T03:34:42;101467.50;;;15.41;92.08
70015;BME280;57358;51.094;6.760;2023-10-08T03:37:09;101462.94;;;15.28;92.98
70015;BME280;57358;51.094;6.760;2023-10-08T03:39:41;101466.16;;;15.33;92.65
70015;BME280;57358;51.094;6.760;2023-10-08T03:42:21;101481.00;;;15.36;92.81
70015;BME280;57358;51.094;6.760;2023-10-08T03:44:50;101468.69;;;15.35;93.01
70015;BME280;57358;51.094;6.760;2023-10-08T03:47:18;101420.22;;;15.06;91.53
70015;BME280;57358;51.094;6.760;2023-10-08T03:49:46;101433.69;;;15.01;91.54
70015;BME280;57358;51.094;6.760;2023-10-08T03:52:12;101450.78;;;14.95;92.87
70015;BME280;57358;51.094;6.760;2023-10-08T03:54:42;101450.72;;;14.81;93.71
70015;BME280;57358;51.094;6.760;2023-10-08T03:57:15;101477.50;;;15.35;92.10
70015;BME280;57358;51.094;6.760;2023-10-08T03:59:51;101477.22;;;15.40;92.99
70015;BME280;57358;51.094;6.760;2023-10-08T04:02:25;101482.31;;;15.43;92.93
70015;BME280;57358;51.094;6.760;2023-10-08T04:05:08;101320.31;;;14.52;91.86
70015;BME280;57358;51.094;6.760;2023-10-08T04:07:50;101405.66;;;15.13;90.63
70015;BME280;57358;51.094;6.760;2023-10-08T04:10:30;101425.25;;;15.25;90.33
70015;BME280;57358;51.094;6.760;2023-10-08T04:13:09;101453.59;;;15.37;91.28
70015;BME280;57358;51.094;6.760;2023-10-08T04:15:36;101386.06;;;14.72;92.25
70015;BME280;57358;51.094;6.760;2023-10-08T04:18:11;101479.56;;;15.30;92.54
70015;BME280;57358;51.094;6.760;2023-10-08T04:20:39;101413.63;;;14.83;92.15
70015;BME280;57358;51.094;6.760;2023-10-08T04:23:08;101472.09;;;15.23;92.62
70015;BME280;57358;51.094;6.760;2023-10-08T04:25:47;101481.91;;;15.21;92.89
70015;BME280;57358;51.094;6.760;2023-10-08T04:28:21;101404.94;;;14.81;92.37
70015;BME280;57358;51.094;6.760;2023-10-08T04:30:48;101449.53;;;15.01;92.43
70015;BME280;57358;51.094;6.760;2023-10-08T04:33:17;101470.41;;;15.22;92.88
70015;BME280;57358;51.094;6.760;2023-10-08T04:35:45;101474.56;;;15.26;92.38
70015;BME280;57358;51.094;6.760;2023-10-08T04:38:20;101453.53;;;15.08;92.18
70015;BME280;57358;51.094;6.760;2023-10-08T04:40:48;101482.50;;;15.26;92.23
70015;BME280;57358;51.094;6.760;2023-10-08T04:43:15;101511.06;;;15.19;92.82
70015;BME280;57358;51.094;6.760;2023-10-08T04:45:49;101527.94;;;14.86;93.74
70015;BME280;57358;51.094;6.760;2023-10-08T04:48:15;101530.81;;;15.13;93.44
70015;BME280;57358;51.094;6.760;2023-10-08T04:50:47;101530.28;;;15.07;93.91
70015;BME280;57358;51.094;6.760;2023-10-08T04:53:30;101499.09;;;14.67;94.61
70015;BME280;57358;51.094;6.760;2023-10-08T04:56:06;101528.56;;;14.91;94.98
70015;BME280;57358;51.094;6.760;2023-10-08T04:58:34;101514.38;;;14.92;94.83
70015;BME280;57358;51.094;6.760;2023-10-08T05:01:04;101530.88;;;15.12;94.37
70015;BME280;57358;51.094;6.760;2023-10-08T05:03:53;101556.13;;;15.18;95.26
70015;BME280;57358;51.094;6.760;2023-10-08T05:09:06;101481.59;;;14.65;94.52
70015;BME280;57358;51.094;6.760;2023-10-08T05:11:40;101517.06;;;15.07;94.10
70015;BME280;57358;51.094;6.760;2023-10-08T05:14:32;101429.72;;;14.48;94.29
70015;BME280;57358;51.094;6.760;2023-10-08T05:19:29;101572.88;;;15.02;95.84
70015;BME280;57358;51.094;6.760;2023-10-08T05:22:08;101576.13;;;14.75;97.48
70015;BME280;57358;51.094;6.760;2023-10-08T05:25:04;101541.88;;;14.58;97.79
70015;BME280;57358;51.094;6.760;2023-10-08T05:27:38;101596.06;;;14.81;98.30
70015;BME280;57358;51.094;6.760;2023-10-08T05:30:31;101543.06;;;14.35;98.57
70015;BME280;57358;51.094;6.760;2023-10-08T05:33:07;101606.09;;;14.59;99.24
70015;BME280;57358;51.094;6.760;2023-10-08T05:35:51;101592.41;;;14.68;98.16
70015;BME280;57358;51.094;6.760;2023-10-08T05:38:30;101608.84;;;14.89;97.14
70015;BME280;57358;51.094;6.760;2023-10-08T05:40:57;101636.16;;;14.89;97.80
70015;BME280;57358;51.094;6.760;2023-10-08T05:43:37;101550.22;;;14.33;98.25
70015;BME280;57358;51.094;6.760;2023-10-08T05:46:13;101489.28;;;13.88;97.89
70015;BME280;57358;51.094;6.760;2023-10-08T05:49:05;101663.06;;;14.80;99.99
70015;BME280;57358;51.094;6.760;2023-10-08T05:51:36;101697.34;;;14.82;100.00
70015;BME280;57358;51.094;6.760;2023-10-08T05:54:17;101706.03;;;14.84;100.00
70015;BME280;57358;51.094;6.760;2023-10-08T05:56:59;101735.88;;;14.86;100.00
70015;BME280;57358;51.094;6.760;2023-10-08T05:59:33;101748.06;;;14.88;100.00
70015;BME280;57358;51.094;6.760;2023-10-08T06:02:19;101706.53;;;14.74;100.00
70015;BME280;57358;51.094;6.760;2023-10-08T06:05:14;101738.34;;;14.89;100.00
70015;BME280;57358;51.094;6.760;2023-10-08T06:07:49;101727.84;;;14.87;100.00
70015;BME280;57358;51.094;6.760;2023-10-08T06:10:25;101709.28;;;14.89;100.00
70015;BME280;57358;51.094;6.760;2023-10-08T06:15:38;101639.13;;;14.50;100.00
70015;BME280;57358;51.094;6.760;2023-10-08T06:18:18;101726.25;;;15.01;100.00
70015;BME280;57358;51.094;6.760;2023-10-08T06:20:46;101723.09;;;14.94;100.00
70015;BME280;57358;51.094;6.760;2023-10-08T06:23:14;101714.66;;;15.03;100.00
70015;BME280;57358;51.094;6.760;2023-10-08T06:25:51;101654.88;;;14.85;100.00
70015;BME280;57358;51.094;6.760;2023-10-08T06:28:26;101695.81;;;15.09;100.00
70015;BME280;57358;51.094;6.760;2023-10-08T06:30:54;101715.88;;;15.13;100.00
70015;BME280;57358;51.094;6.760;2023-10-08T06:33:23;101714.00;;;15.15;100.00
70015;BME280;57358;51.094;6.760;2023-10-08T06:35:57;101705.63;;;15.07;100.00
70015;BME280;57358;51.094;6.760;2023-10-08T06:38:42;101737.34;;;15.23;100.00
70015;BME280;57358;51.094;6.760;2023-10-08T06:41:13;101511.97;;;14.08;100.00
70015;BME280;57358;51.094;6.760;2023-10-08T06:43:42;101691.28;;;15.27;100.00
70015;BME280;57358;51.094;6.760;2023-10-08T06:46:14;101632.22;;;14.96;100.00
70015;BME280;57358;51.094;6.760;2023-10-08T06:48:41;101604.25;;;14.76;100.00
70015;BME280;57358;51.094;6.760;2023-10-08T06:51:09;101662.88;;;15.31;100.00
70015;BME280;57358;51.094;6.760;2023-10-08T06:53:46;101728.44;;;15.42;100.00
70015;BME280;57358;51.094;6.760;2023-10-08T06:56:14;101725.88;;;15.40;100.00
70015;BME280;57358;51.094;6.760;2023-10-08T06:58:42;101767.91;;;15.61;100.00
70015;BME280;57358;51.094;6.760;2023-10-08T07:01:18;101762.19;;;15.68;100.00
70015;BME280;57358;51.094;6.760;2023-10-08T07:03:48;101703.31;;;15.49;100.00
70015;BME280;57358;51.094;6.760;2023-10-08T07:06:18;101597.91;;;15.11;100.00
70015;BME280;57358;51.094;6.760;2023-10-08T07:08:59;101635.75;;;15.27;100.00
70015;BME280;57358;51.094;6.760;2023-10-08T07:11:26;101715.97;;;15.75;100.00
70015;BME280;57358;51.094;6.760;2023-10-08T07:13:53;101540.81;;;14.61;100.00
70015;BME280;57358;51.094;6.760;2023-10-08T07:16:19;101769.16;;;16.01;100.00
70015;BME280;57358;51.094;6.760;2023-10-08T07:18:47;101680.78;;;15.58;100.00
70015;BME280;57358;51.094;6.760;2023-10-08T07:21:21;101733.50;;;15.92;100.00
70015;BME280;57358;51.094;6.760;2023-10-08T07:23:56;101777.00;;;16.19;100.00
70015;BME280;57358;51.094;6.760;2023-10-08T07:26:28;101780.69;;;16.16;100.00
70015;BME280;57358;51.094;6.760;2023-10-08T07:29:06;101772.28;;;16.24;100.00
70015;BME280;57358;51.094;6.760;2023-10-08T07:31:36;101707.84;;;16.23;99.77
70015;BME280;57358;51.094;6.760;2023-10-08T07:34:03;101698.03;;;16.40;98.54
70015;BME280;57358;51.094;6.760;2023-10-08T07:36:43;101634.41;;;15.97;99.16
70015;BME280;57358;51.094;6.760;2023-10-08T07:39:09;101753.72;;;16.54;100.00
70015;BME280;57358;51.094;6.760;2023-10-08T07:41:53;101599.06;;;15.67;99.85
70015;BME280;57358;51.094;6.760;2023-10-08T07:44:22;101675.31;;;16.21;98.43
70015;BME280;57358;51.094;6.760;2023-10-08T07:46:53;101705.50;;;16.47;97.43
70015;BME280;57358;51.094;6.760;2023-10-08T07:49:26;101680.91;;;16.60;95.84
70015;BME280;57358;51.094;6.760;2023-10-08T07:51:57;101690.88;;;16.56;96.16
70015;BME280;57358;51.094;6.760;2023-10-08T07:54:28;101661.41;;;16.61;93.55
70015;BME280;57358;51.094;6.760;2023-10-08T07:56:58;101713.38;;;16.63;96.34
70015;BME280;57358;51.094;6.760;2023-10-08T07:59:36;101656.00;;;16.19;96.49
70015;BME280;57358;51.094;6.760;2023-10-08T08:02:09;101666.25;;;16.54;94.29
70015;BME280;57358;51.094;6.760;2023-10-08T08:04:42;101661.34;;;16.62;93.25
70015;BME280;57358;51.094;6.760;2023-10-08T08:07:17;101544.69;;;16.06;91.51
70015;BME280;57358;51.094;6.760;2023-10-08T08:09:47;101657.25;;;16.42;93.13
70015;BME280;57358;51.094;6.760;2023-10-08T08:12:19;101547.22;;;15.79;91.49
70015;BME280;57358;51.094;6.760;2023-10-08T08:14:46;101675.16;;;16.39;93.31
70015;BME280;57358;51.094;6.760;2023-10-08T08:17:12;101618.47;;;16.12;93.55
70015;BME280;57358;51.094;6.760;2023-10-08T08:19:49;101637.09;;;16.40;91.18
70015;BME280;57358;51.094;6.760;2023-10-08T08:22:18;101513.50;;;15.52;92.81
70015;BME280;57358;51.094;6.760;2023-10-08T08:24:53;101703.53;;;16.65;94.18
70015;BME280;57358;51.094;6.760;2023-10-08T08:27:24;101721.09;;;16.82;94.40
70015;BME280;57358;51.094;6.760;2023-10-08T08:29:51;101778.84;;;17.20;95.43
70015;BME280;57358;51.094;6.760;2023-10-08T08:32:22;101741.19;;;17.28;93.12
70015;BME280;57358;51.094;6.760;2023-10-08T08:34:50;101647.63;;;16.84;91.31
70015;BME280;57358;51.094;6.760;2023-10-08T08:37:17;101638.50;;;17.30;87.81
70015;BME280;57358;51.094;6.760;2023-10-08T08:39:43;101678.91;;;17.33;89.70
70015;BME280;57358;51.094;6.760;2023-10-08T08:42:14;101586.94;;;17.07;86.89
70015;BME280;57358;51.094;6.760;2023-10-08T08:44:44;101659.00;;;17.13;88.30
70015;BME280;57358;51.094;6.760;2023-10-08T08:47:16;101740.00;;;17.05;92.82
70015;BME280;57358;51.094;6.760;2023-10-08T08:49:44;101615.59;;;16.87;88.60
70015;BME280;57358;51.094;6.760;2023-10-08T08:52:12;101684.03;;;16.81;90.99
70015;BME280;57358;51.094;6.760;2023-10-08T08:54:39;101762.53;;;17.26;92.61
70015;BME280;57358;51.094;6.760;2023-10-08T08:57:09;101786.38;;;17.41;93.12
70015;BME280;57358;51.094;6.760;2023-10-08T08:59:44;101763.44;;;17.54;92.71
70015;BME280;57358;51.094;6.760;2023-10-08T09:02:14;101604.25;;;17.12;90.22
70015;BME280;57358;51.094;6.760;2023-10-08T09:04:41;101653.31;;;17.87;87.32
70015;BME280;57358;51.094;6.760;2023-10-08T09:07:08;101529.50;;;17.46;85.99
70015;BME280;57358;51.094;6.760;2023-10-08T09:09:35;101611.47;;;18.03;85.18
70015;BME280;57358;51.094;6.760;2023-10-08T09:12:06;101585.66;;;17.92;84.94
70015;BME280;57358;51.094;6.760;2023-10-08T09:14:36;101688.94;;;18.61;84.95
70015;BME280;57358;51.094;6.760;2023-10-08T09:17:05;101695.94;;;18.75;83.97
70015;BME280;57358;51.094;6.760;2023-10-08T09:19:38;101626.91;;;18.73;82.76
70015;BME280;57358;51.094;6.760;2023-10-08T09:22:07;101716.97;;;18.78;85.30
70015;BME280;57358;51.094;6.760;2023-10-08T09:24:38;101546.28;;;18.36;81.07
70015;BME280;57358;51.094;6.760;2023-10-08T09:27:09;101650.09;;;18.71;81.60
70015;BME280;57358;51.094;6.760;2023-10-08T09:29:41;101505.31;;;18.14;79.04
70015;BME280;57358;51.094;6.760;2023-10-08T09:32:12;101649.69;;;18.52;81.83
70015;BME280;57358;51.094;6.760;2023-10-08T09:34:52;101722.66;;;18.61;84.43
70015;BME280;57358;51.094;6.760;2023-10-08T09:37:18;101718.91;;;19.02;82.41
70015;BME280;57358;51.094;6.760;2023-10-08T09:39:49;101506.84;;;18.30;78.20
70015;BME280;57358;51.094;6.760;2023-10-08T09:42:19;101509.75;;;18.27;78.06
70015;BME280;57358;51.094;6.760;2023-10-08T09:44:48;101497.06;;;17.93;78.98
70015;BME280;57358;51.094;6.760;2023-10-08T09:47:21;101597.00;;;18.33;79.46
70015;BME280;57358;51.094;6.760;2023-10-08T09:50:03;101724.78;;;18.43;83.62
70015;BME280;57358;51.094;6.760;2023-10-08T09:52:40;101720.28;;;18.56;82.71
70015;BME280;57358;51.094;6.760;2023-10-08T09:55:09;101597.50;;;18.51;79.30
70015;BME280;57358;51.094;6.760;2023-10-08T09:57:38;101687.56;;;18.68;81.73
70015;BME280;57358;51.094;6.760;2023-10-08T10:00:06;101543.00;;;18.69;77.23
70015;BME280;57358;51.094;6.760;2023-10-08T10:02:41;101736.88;;;18.98;80.57
70015;BME280;57358;51.094;6.760;2023-10-08T10:05:19;101510.88;;;18.36;77.79
70015;BME280;57358;51.094;6.760;2023-10-08T10:07:49;101544.53;;;18.48;76.93
70015;BME280;57358;51.094;6.760;2023-10-08T10:10:28;101542.47;;;18.40;77.33
70015;BME280;57358;51.094;6.760;2023-10-08T10:13:02;101455.63;;;17.91;77.62
70015;BME280;57358;51.094;6.760;2023-10-08T10:15:32;101791.66;;;19.13;81.85
70015;BME280;57358;51.094;6.760;2023-10-08T10:20:44;101792.72;;;19.73;82.22
70015;BME280;57358;51.094;6.760;2023-10-08T10:23:42;101695.63;;;19.78;79.07
70015;BME280;57358;51.094;6.760;2023-10-08T10:31:54;101566.50;;;19.59;76.14
70015;BME280;57358;51.094;6.760;2023-10-08T10:34:26;101607.50;;;19.92;75.14
70015;BME280;57358;51.094;6.760;2023-10-08T10:36:58;101517.28;;;19.76;73.36
70015;BME280;57358;51.094;6.760;2023-10-08T10:39:53;101545.00;;;19.27;75.51
70015;BME280;57358;51.094;6.760;2023-10-08T10:42:24;101603.16;;;19.56;75.83
70015;BME280;57358;51.094;6.760;2023-10-08T10:44:53;101656.91;;;19.85;75.75
70015;BME280;57358;51.094;6.760;2023-10-08T10:47:23;101537.78;;;19.51;74.98
70015;BME280;57358;51.094;6.760;2023-10-08T10:49:54;101694.59;;;19.67;78.23
70015;BME280;57358;51.094;6.760;2023-10-08T10:52:27;101749.41;;;20.18;77.91
70015;BME280;57358;51.094;6.760;2023-10-08T10:55:19;101698.19;;;19.79;78.54
70015;BME280;57358;51.094;6.760;2023-10-08T10:57:54;101595.91;;;20.16;74.03
70015;BME280;57358;51.094;6.760;2023-10-08T11:00:24;101568.16;;;20.18;73.23
70015;BME280;57358;51.094;6.760;2023-10-08T11:03:02;101632.03;;;20.31;74.47
70015;BME280;57358;51.094;6.760;2023-10-08T11:05:30;101545.75;;;20.32;72.28
70015;BME280;57358;51.094;6.760;2023-10-08T11:07:59;101530.88;;;20.07;73.03
70015;BME280;57358;51.094;6.760;2023-10-08T11:10:35;101586.59;;;20.21;73.01
70015;BME280;57358;51.094;6.760;2023-10-08T11:13:05;101605.09;;;19.89;75.07
70015;BME280;57358;51.094;6.760;2023-10-08T11:15:45;101578.09;;;20.16;73.58
70015;BME280;57358;51.094;6.760;2023-10-08T11:18:21;101536.31;;;20.17;72.40
70015;BME280;57358;51.094;6.760;2023-10-08T11:20:50;101577.25;;;20.04;72.99
70015;BME280;57358;51.094;6.760;2023-10-08T11:23:44;101780.00;;;20.37;77.70
70015;BME280;57358;51.094;6.760;2023-10-08T11:26:20;101568.75;;;20.56;72.65
70015;BME280;57358;51.094;6.760;2023-10-08T11:28:56;101529.63;;;20.33;72.19
70015;BME280;57358;51.094;6.760;2023-10-08T11:31:27;101427.06;;;20.17;70.38
70015;BME280;57358;51.094;6.760;2023-10-08T11:33:59;101646.09;;;20.33;74.75
70015;BME280;57358;51.094;6.760;2023-10-08T11:36:28;101632.84;;;20.20;75.65
70015;BME280;57358;51.094;6.760;2023-10-08T11:38:55;101762.13;;;20.72;76.56
70015;BME280;57358;51.094;6.760;2023-10-08T11:41:28;101683.28;;;20.46;75.64
70015;BME280;57358;51.094;6.760;2023-10-08T11:44:01;101657.47;;;20.46;74.89
70015;BME280;57358;51.094;6.760;2023-10-08T11:46:30;101659.81;;;20.62;74.75
70015;BME280;57358;51.094;6.760;2023-10-08T11:49:05;101562.91;;;20.50;72.15
70015;BME280;57358;51.094;6.760;2023-10-08T11:51:32;101648.63;;;20.35;75.82
70015;BME280;57358;51.094;6.760;2023-10-08T11:54:00;101760.97;;;20.52;78.03
70015;BME280;57358;51.094;6.760;2023-10-08T11:56:28;101701.06;;;20.11;78.26
70015;BME280;57358;51.094;6.760;2023-10-08T11:58:58;101753.94;;;20.40;79.26
70015;BME280;57358;51.094;6.760;2023-10-08T12:01:24;101865.84;;;20.88;81.45
70015;BME280;57358;51.094;6.760;2023-10-08T12:03:51;101798.53;;;20.96;79.14
70015;BME280;57358;51.094;6.760;2023-10-08T12:06:18;101791.16;;;21.00;78.73
70015;BME280;57358;51.094;6.760;2023-10-08T12:08:46;101700.16;;;20.58;78.43
70015;BME280;57358;51.094;6.760;2023-10-08T12:11:13;101790.88;;;20.69;81.41
70015;BME280;57358;51.094;6.760;2023-10-08T12:13:41;101687.16;;;20.30;79.60
70015;BME280;57358;51.094;6.760;2023-10-08T12:16:12;101724.75;;;20.39;80.94
70015;BME280;57358;51.094;6.760;2023-10-08T12:18:45;101694.06;;;19.75;81.41
70015;BME280;57358;51.094;6.760;2023-10-08T12:21:16;101813.69;;;20.38;82.76
70015;BME280;57358;51.094;6.760;2023-10-08T12:23:44;101704.72;;;19.86;81.95
70015;BME280;57358;51.094;6.760;2023-10-08T12:26:13;101741.66;;;20.15;81.26
70015;BME280;57358;51.094;6.760;2023-10-08T12:28:46;101619.59;;;19.73;79.12
70015;BME280;57358;51.094;6.760;2023-10-08T12:31:15;101626.16;;;19.81;78.54
70015;BME280;57358;51.094;6.760;2023-10-08T12:33:43;101681.56;;;19.76;80.58
70015;BME280;57358;51.094;6.760;2023-10-08T12:36:11;101464.41;;;18.65;79.60
70015;BME280;57358;51.094;6.760;2023-10-08T12:38:40;101610.81;;;19.36;79.71
70015;BME280;57358;51.094;6.760;2023-10-08T12:41:10;101659.31;;;19.77;79.56
70015;BME280;57358;51.094;6.760;2023-10-08T12:43:42;101558.72;;;19.09;79.92
70015;BME280;57358;51.094;6.760;2023-10-08T12:46:09;101705.66;;;19.74;81.33
70015;BME280;57358;51.094;6.760;2023-10-08T12:48:47;101818.25;;;19.76;86.61
70015;BME280;57358;51.094;6.760;2023-10-08T12:51:23;101827.72;;;19.80;88.25
70015;BME280;57358;51.094;6.760;2023-10-08T12:53:51;101757.38;;;19.22;89.29
70015;BME280;57358;51.094;6.760;2023-10-08T12:56:28;101729.75;;;19.36;87.34
70015;BME280;57358;51.094;6.760;2023-10-08T12:59:01;101836.75;;;19.90;90.11
70015;BME280;57358;51.094;6.760;2023-10-08T13:01:36;101878.53;;;19.90;92.71
70015;BME280;57358;51.094;6.760;2023-10-08T13:04:09;101840.03;;;19.94;91.58
70015;BME280;57358;51.094;6.760;2023-10-08T13:06:42;101825.69;;;19.84;91.95
70015;BME280;57358;51.094;6.760;2023-10-08T13:09:11;101815.22;;;19.93;91.44
70015;BME280;57358;51.094;6.760;2023-10-08T13:11:40;101850.81;;;20.17;91.74
70015;BME280;57358;51.094;6.760;2023-10-08T13:14:09;101751.97;;;20.20;86.85
70015;BME280;57358;51.094;6.760;2023-10-08T13:16:38;101754.31;;;20.00;88.70
70015;BME280;57358;51.094;6.760;2023-10-08T13:19:05;101870.78;;;20.46;92.26
70015;BME280;57358;51.094;6.760;2023-10-08T13:21:34;101762.41;;;20.34;88.75
70015;BME280;57358;51.094;6.760;2023-10-08T13:24:03;101795.59;;;20.65;88.34
70015;BME280;57358;51.094;6.760;2023-10-08T13:26:31;101707.56;;;20.77;83.91
70015;BME280;57358;51.094;6.760;2023-10-08T13:28:58;101663.78;;;20.45;84.38
70015;BME280;57358;51.094;6.760;2023-10-08T13:31:25;101764.09;;;20.82;86.17